Terminal Aerodrome Forecast
Issued by NWS Austin/San Antonio, TX

Home | Current Version | Previous Version | Text Only | Print | Product List | Glossary On
Versions: 1 2 3 4 5 6 7 8 9 10 11 12 13 14 15 16 17 18 19 20 21 22 23 24 25 26
000
FTUS44 KEWX 220341 AAB
TAFAUS
TAF AMD
KAUS 220341Z 2204/2306 13005KT P6SM SCT012
      TEMPO 2204/2207 BKN012
     FM220700 14005KT P6SM OVC015
     FM221300 16007KT P6SM SCT015 BKN025
     FM221600 15010KT P6SM SCT040=

USA.gov is the U.S. government's official web portal to all federal, state and local government web resources and services.